Time;durP1;ratioP1;P1;durP2;ratioP2;P2;SDS_P1;SDS_P2;PMS_P1;PMS_P2;Temp;Humidity;BMP_temperature;BMP_pressure;BME280_temperature;BME280_humidity;BME280_pressure;Samples;Min_cycle;Max_cycle;Signal;HPM_P1;HPM_P2
2021/07/27 00:02:28;;;;;;;3.00;2.13;;;26.00;57.70;;;;;;5100690;28;20200;-70
2021/07/27 00:05:00;;;;;;;2.30;2.10;;;26.10;57.70;;;;;;5111713;28;20201;-70
2021/07/27 00:07:29;;;;;;;2.23;2.10;;;26.00;57.70;;;;;;5104534;28;20213;-70
2021/07/27 00:09:57;;;;;;;2.47;2.27;;;26.10;57.70;;;;;;5109078;28;20204;-71
2021/07/27 00:12:25;;;;;;;2.30;2.20;;;26.10;57.80;;;;;;5103595;28;20594;-71
2021/07/27 00:14:57;;;;;;;2.67;2.47;;;26.00;57.70;;;;;;5101332;28;20613;-71
2021/07/27 00:17:28;;;;;;;2.50;2.30;;;26.00;57.70;;;;;;5100576;28;20321;-71
2021/07/27 00:20:00;;;;;;;2.63;2.43;;;26.00;57.70;;;;;;5109311;28;20189;-71
2021/07/27 00:22:33;;;;;;;2.37;2.27;;;26.00;57.80;;;;;;5100219;28;20221;-71
2021/07/27 00:25:03;;;;;;;2.23;2.13;;;26.00;57.80;;;;;;5100853;28;20563;-71
2021/07/27 00:27:35;;;;;;;2.37;2.17;;;26.00;57.80;;;;;;5094416;28;20225;-71
2021/07/27 00:30:09;;;;;;;2.40;2.20;;;26.00;57.80;;;;;;5097166;28;20193;-71
2021/07/27 00:32:41;;;;;;;2.40;2.20;;;25.90;57.80;;;;;;5104113;28;20234;-71
2021/07/27 00:35:22;;;;;;;2.67;2.47;;;25.90;57.80;;;;;;5100324;28;20276;-72
2021/07/27 00:38:27;;;;;;;2.60;2.40;;;26.00;57.80;;;;;;5110984;28;20214;-71
2021/07/27 00:40:56;;;;;;;2.73;2.53;;;25.90;58.40;;;;;;5101742;28;20281;-71
2021/07/27 00:43:26;;;;;;;2.30;2.20;;;25.90;57.80;;;;;;5105718;28;20208;-71
2021/07/27 00:46:19;;;;;;;2.20;2.07;;;25.90;57.80;;;;;;5105298;28;20633;-71
2021/07/27 00:48:48;;;;;;;2.60;2.40;;;25.90;57.90;;;;;;5108113;28;20220;-71
2021/07/27 00:51:19;;;;;;;2.37;2.17;;;25.90;57.90;;;;;;5106718;28;20540;-71
2021/07/27 00:53:49;;;;;;;2.40;2.30;;;25.90;57.90;;;;;;5105734;28;20205;-71
2021/07/27 00:56:20;;;;;;;2.60;2.40;;;25.90;57.90;;;;;;5093693;28;20209;-70
2021/07/27 00:58:49;;;;;;;2.60;2.40;;;25.90;57.90;;;;;;5089831;28;20927;-71
2021/07/27 01:01:21;;;;;;;2.63;2.43;;;25.90;57.90;;;;;;5110642;28;20208;-71
2021/07/27 01:03:51;;;;;;;2.30;2.20;;;25.90;58.00;;;;;;5100915;27;20661;-71
2021/07/27 01:06:23;;;;;;;2.60;2.40;;;25.90;58.00;;;;;;5108980;28;20232;-71
2021/07/27 01:08:54;;;;;;;2.17;2.07;;;25.80;57.90;;;;;;5105068;28;20222;-71
2021/07/27 01:11:24;;;;;;;2.77;2.57;;;25.80;57.90;;;;;;5108473;28;20200;-71
2021/07/27 01:13:54;;;;;;;2.83;2.63;;;25.80;57.90;;;;;;5102732;28;20210;-71
2021/07/27 01:16:30;;;;;;;2.73;2.53;;;25.90;58.00;;;;;;5106619;28;20200;-71
2021/07/27 01:44:06;;;;;;;2.60;2.47;;;25.80;58.00;;;;;;5093708;28;20188;-71
2021/07/27 01:46:38;;;;;;;3.03;2.83;;;25.80;58.00;;;;;;5100089;28;20216;-71
2021/07/27 01:49:10;;;;;;;2.90;2.70;;;25.80;58.00;;;;;;5108646;28;20215;-71
2021/07/27 01:51:46;;;;;;;3.00;2.80;;;25.70;57.90;;;;;;5102407;28;20242;-71
2021/07/27 01:54:16;;;;;;;2.70;2.50;;;25.70;57.90;;;;;;5099703;28;20204;-71
2021/07/27 01:56:47;;;;;;;3.30;3.10;;;25.70;57.90;;;;;;5099397;28;20295;-71
2021/07/27 01:59:14;;;;;;;2.90;2.70;;;25.70;58.00;;;;;;5108387;28;20197;-71
2021/07/27 02:01:43;;;;;;;3.10;2.90;;;25.70;57.90;;;;;;5092946;28;20201;-71
2021/07/27 02:04:12;;;;;;;3.40;3.10;;;25.80;58.00;;;;;;5098081;28;20269;-70
2021/07/27 02:06:44;;;;;;;3.20;3.00;;;25.70;57.90;;;;;;5109769;28;20703;-70
2021/07/27 02:09:16;;;;;;;2.90;2.70;;;25.80;58.00;;;;;;5104566;28;20201;-70
2021/07/27 02:11:48;;;;;;;3.20;3.00;;;25.80;57.90;;;;;;5109860;28;20538;-71
2021/07/27 02:14:17;;;;;;;3.30;3.00;;;25.70;57.90;;;;;;5100024;28;20193;-71
2021/07/27 02:16:47;;;;;;;3.30;3.10;;;25.70;57.90;;;;;;5090492;28;20197;-71
2021/07/27 02:19:16;;;;;;;2.93;2.73;;;25.70;57.80;;;;;;5100129;28;20193;-71
2021/07/27 02:21:47;;;;;;;3.17;2.97;;;25.70;57.80;;;;;;5106358;28;20203;-71
2021/07/27 02:24:17;;;;;;;3.10;2.90;;;25.70;57.80;;;;;;5101271;28;20269;-71
2021/07/27 02:26:48;;;;;;;2.80;2.60;;;25.70;57.80;;;;;;5108433;28;20212;-71
2021/07/27 02:29:20;;;;;;;3.40;3.20;;;25.70;57.90;;;;;;5105530;28;20203;-71
2021/07/27 02:31:51;;;;;;;3.27;3.07;;;25.70;57.80;;;;;;5097995;28;20641;-71
2021/07/27 02:34:31;;;;;;;3.20;3.00;;;25.70;57.90;;;;;;5100292;28;20192;-71
2021/07/27 02:37:14;;;;;;;3.27;2.97;;;25.70;57.80;;;;;;5096998;28;20681;-71
2021/07/27 02:39:42;;;;;;;3.17;2.97;;;25.70;57.90;;;;;;5107669;28;20212;-71
2021/07/27 02:42:16;;;;;;;3.50;3.20;;;25.70;57.80;;;;;;5099635;28;20213;-71
2021/07/27 02:44:46;;;;;;;3.03;2.83;;;25.60;57.80;;;;;;5109387;28;20224;-72
2021/07/27 02:47:18;;;;;;;3.23;2.93;;;25.70;57.90;;;;;;5102285;28;20590;-71
2021/07/27 02:49:53;;;;;;;3.17;2.93;;;25.70;57.80;;;;;;5105895;28;20272;-71
2021/07/27 02:52:23;;;;;;;3.50;3.10;;;25.70;57.90;;;;;;5096953;28;20201;-71
2021/07/27 02:54:52;;;;;;;3.60;3.30;;;25.70;57.80;;;;;;5097449;28;20193;-71
2021/07/27 02:57:22;;;;;;;3.50;3.30;;;25.70;57.80;;;;;;5096270;28;20197;-71
2021/07/27 03:00:00;;;;;;;3.00;2.80;;;25.60;57.80;;;;;;5102921;28;20199;-71
2021/07/27 03:02:44;;;;;;;3.20;3.00;;;25.60;57.80;;;;;;5101309;28;20340;-72
2021/07/27 03:05:17;;;;;;;2.97;2.77;;;25.60;57.70;;;;;;5102528;28;20208;-71
2021/07/27 03:10:17;;;;;;;3.10;2.70;;;25.60;57.80;;;;;;5104613;28;20265;-71
2021/07/27 03:12:58;;;;;;;3.23;3.03;;;25.60;57.80;;;;;;5090352;28;20200;-71
2021/07/27 03:15:29;;;;;;;3.00;2.80;;;25.60;57.80;;;;;;5101229;28;20211;-71
2021/07/27 03:18:03;;;;;;;3.17;2.97;;;25.60;57.70;;;;;;5109129;28;20203;-71
2021/07/27 03:20:34;;;;;;;3.13;2.93;;;25.60;57.70;;;;;;5100710;28;20204;-71
2021/07/27 03:23:05;;;;;;;3.60;2.83;;;25.60;57.70;;;;;;5107686;28;20211;-71
2021/07/27 03:25:37;;;;;;;3.00;2.80;;;25.60;57.70;;;;;;5101888;28;20596;-71
2021/07/27 03:28:19;;;;;;;3.60;3.30;;;25.50;57.70;;;;;;5104081;28;20216;-71
2021/07/27 03:30:56;;;;;;;2.90;2.70;;;25.60;57.80;;;;;;5097082;28;20250;-71
2021/07/27 03:33:26;;;;;;;3.17;2.93;;;25.60;57.70;;;;;;5116102;28;20715;-70
2021/07/27 03:35:56;;;;;;;3.23;3.03;;;25.60;57.70;;;;;;5107961;28;20200;-71
2021/07/27 03:38:24;;;;;;;3.50;3.20;;;25.60;57.70;;;;;;5104262;28;20216;-71
2021/07/27 03:41:08;;;;;;;3.30;3.10;;;25.50;57.70;;;;;;5100847;28;20216;-71
2021/07/27 03:43:38;;;;;;;3.30;3.10;;;25.50;57.60;;;;;;5103039;28;20197;-71
2021/07/27 03:46:08;;;;;;;3.27;3.07;;;25.50;57.70;;;;;;5094744;28;20680;-71
2021/07/27 03:48:40;;;;;;;3.30;3.03;;;25.50;57.70;;;;;;5102181;28;20231;-72
2021/07/27 03:51:15;;;;;;;2.83;2.63;;;25.60;57.70;;;;;;5111153;28;20187;-71
2021/07/27 03:53:47;;;;;;;3.47;3.27;;;25.50;57.70;;;;;;5103813;28;20256;-71
2021/07/27 03:56:17;;;;;;;4.47;3.10;;;25.50;57.70;;;;;;5110134;28;20196;-71
2021/07/27 03:58:49;;;;;;;3.10;2.90;;;25.50;57.70;;;;;;5106570;28;20204;-71
2021/07/27 04:01:18;;;;;;;3.20;3.00;;;25.50;57.70;;;;;;5098366;28;20192;-71
2021/07/27 04:03:50;;;;;;;3.17;2.97;;;25.50;57.70;;;;;;5105493;28;20207;-71
2021/07/27 04:06:20;;;;;;;3.60;3.30;;;25.50;57.70;;;;;;5107772;28;20215;-71
2021/07/27 04:08:48;;;;;;;3.30;3.00;;;25.50;57.70;;;;;;5092670;28;20244;-71
2021/07/27 04:11:19;;;;;;;3.23;3.03;;;25.50;57.60;;;;;;5100984;28;20258;-72
2021/07/27 04:13:51;;;;;;;3.13;2.93;;;25.50;57.70;;;;;;5109532;28;20199;-72
2021/07/27 04:16:23;;;;;;;3.40;3.10;;;25.50;57.60;;;;;;5104769;28;20199;-72
2021/07/27 04:18:55;;;;;;;3.27;3.07;;;25.50;57.60;;;;;;5110699;28;20209;-72
2021/07/27 04:21:26;;;;;;;3.13;2.93;;;25.50;57.60;;;;;;5102016;28;20200;-72
2021/07/27 04:23:58;;;;;;;3.50;3.27;;;25.50;57.60;;;;;;5092604;28;20221;-72
2021/07/27 04:26:31;;;;;;;3.40;3.10;;;25.50;57.50;;;;;;5103892;28;20795;-71
2021/07/27 04:28:59;;;;;;;3.20;3.00;;;25.50;57.50;;;;;;5108966;28;20201;-71
2021/07/27 04:31:30;;;;;;;3.50;3.30;;;25.50;57.50;;;;;;5103102;28;20196;-72
2021/07/27 04:34:01;;;;;;;3.40;3.10;;;25.50;57.50;;;;;;5108143;28;20275;-72
2021/07/27 04:36:30;;;;;;;3.43;3.13;;;25.40;57.40;;;;;;5092135;28;20193;-72
2021/07/27 04:39:04;;;;;;;3.40;3.10;;;25.50;57.50;;;;;;5099102;28;20196;-72
2021/07/27 04:41:47;;;;;;;3.37;3.10;;;25.40;57.40;;;;;;5100418;28;20297;-71
2021/07/27 04:44:19;;;;;;;3.60;3.30;;;25.40;57.40;;;;;;5103652;28;20212;-70
2021/07/27 04:46:50;;;;;;;3.00;2.80;;;25.50;57.50;;;;;;5109784;28;20196;-71
2021/07/27 04:49:21;;;;;;;3.67;3.37;;;25.50;57.40;;;;;;5100962;28;20629;-71
2021/07/27 04:51:57;;;;;;;3.57;3.27;;;25.40;57.40;;;;;;5104448;28;20212;-71
2021/07/27 04:54:29;;;;;;;3.17;2.97;;;25.40;57.30;;;;;;5102390;28;20236;-71
2021/07/27 04:57:01;;;;;;;3.60;3.30;;;25.40;57.30;;;;;;5100663;28;20204;-71
2021/07/27 04:59:32;;;;;;;3.30;3.07;;;25.40;57.20;;;;;;5104922;28;20211;-72
2021/07/27 05:02:10;;;;;;;3.53;3.33;;;25.40;57.30;;;;;;5102543;28;20558;-72
2021/07/27 05:05:07;;;;;;;3.50;3.20;;;25.40;57.20;;;;;;5102138;28;20220;-72
2021/07/27 05:07:39;;;;;;;3.70;3.40;;;25.40;57.20;;;;;;5107415;28;20711;-71
2021/07/27 05:10:08;;;;;;;3.93;3.63;;;25.40;57.20;;;;;;5110206;28;20198;-71
2021/07/27 05:12:38;;;;;;;3.57;3.27;;;25.40;57.20;;;;;;5098042;28;20197;-71
2021/07/27 05:15:10;;;;;;;4.23;3.90;;;25.40;57.20;;;;;;5095675;28;20200;-71
2021/07/27 05:17:39;;;;;;;3.87;3.57;;;25.40;57.20;;;;;;5106591;28;20224;-71
2021/07/27 05:20:07;;;;;;;3.40;3.10;;;25.40;57.10;;;;;;5108338;28;20546;-72
2021/07/27 05:22:39;;;;;;;3.90;3.60;;;25.40;57.10;;;;;;5108413;28;20216;-72
2021/07/27 05:25:11;;;;;;;3.20;3.00;;;25.40;57.20;;;;;;5101881;28;20621;-72
2021/07/27 05:27:41;;;;;;;3.67;3.37;;;25.40;57.10;;;;;;5088218;28;20243;-71
2021/07/27 05:30:12;;;;;;;3.93;3.60;;;25.40;57.10;;;;;;5101038;28;20196;-72
2021/07/27 05:32:43;;;;;;;3.33;3.13;;;25.40;57.10;;;;;;5090954;28;20331;-71
2021/07/27 05:35:25;;;;;;;3.60;3.30;;;25.40;57.10;;;;;;5089176;28;20295;-71
2021/07/27 05:37:58;;;;;;;3.47;3.17;;;25.40;57.10;;;;;;5095699;28;20205;-71
2021/07/27 05:40:30;;;;;;;3.60;3.30;;;25.40;57.10;;;;;;5105237;27;20279;-71
2021/07/27 05:43:05;;;;;;;3.47;3.17;;;25.40;57.10;;;;;;5103339;28;20519;-71
2021/07/27 05:45:34;;;;;;;3.70;3.40;;;25.30;57.00;;;;;;5100952;28;20284;-71
2021/07/27 05:48:07;;;;;;;4.27;3.80;;;25.40;57.10;;;;;;5098474;28;20262;-71
2021/07/27 05:50:37;;;;;;;3.83;3.53;;;25.40;57.10;;;;;;5101480;28;20216;-71
2021/07/27 05:53:06;;;;;;;3.70;3.40;;;25.40;57.00;;;;;;5106293;28;20777;-71
2021/07/27 05:55:34;;;;;;;4.17;3.77;;;25.40;57.00;;;;;;5097487;28;20192;-72
2021/07/27 05:58:04;;;;;;;4.00;3.70;;;25.40;57.00;;;;;;5103256;28;20204;-72
2021/07/27 06:00:37;;;;;;;3.33;3.13;;;25.40;57.00;;;;;;5104005;28;20209;-71
2021/07/27 06:03:07;;;;;;;3.87;3.57;;;25.40;57.00;;;;;;5109121;28;20192;-71
2021/07/27 06:05:36;;;;;;;3.63;3.33;;;25.40;57.00;;;;;;5099308;28;20196;-71
2021/07/27 06:08:06;;;;;;;4.13;3.50;;;25.30;56.90;;;;;;5107648;28;20216;-71
2021/07/27 06:10:40;;;;;;;3.53;3.23;;;25.30;56.90;;;;;;5098372;28;20196;-71
2021/07/27 06:13:10;;;;;;;6.37;3.87;;;25.40;56.90;;;;;;5106837;28;20612;-72
2021/07/27 06:15:43;;;;;;;3.60;3.30;;;25.40;57.00;;;;;;5103167;28;20203;-72
2021/07/27 06:18:13;;;;;;;3.73;3.43;;;25.40;56.90;;;;;;5089990;28;20657;-72
2021/07/27 06:20:44;;;;;;;3.67;3.37;;;25.30;56.80;;;;;;5101298;28;20745;-72
2021/07/27 06:23:15;;;;;;;4.23;3.83;;;25.40;56.90;;;;;;5101747;28;20610;-72
2021/07/27 06:25:48;;;;;;;4.00;3.60;;;25.40;56.80;;;;;;5098419;28;20212;-71
2021/07/27 06:28:21;;;;;;;4.00;3.60;;;25.40;56.90;;;;;;5104415;28;20220;-71
2021/07/27 06:30:56;;;;;;;4.47;4.07;;;25.40;56.90;;;;;;5100958;28;20653;-72
2021/07/27 06:33:28;;;;;;;4.27;3.87;;;25.40;56.80;;;;;;5097548;28;20262;-72
2021/07/27 06:35:59;;;;;;;4.20;3.80;;;25.40;56.80;;;;;;5106795;28;20434;-72
2021/07/27 06:38:37;;;;;;;5.13;4.20;;;25.30;56.70;;;;;;5099388;28;20476;-71
2021/07/27 06:41:11;;;;;;;4.17;3.80;;;25.40;56.80;;;;;;5104905;27;20622;-72
2021/07/27 06:43:42;;;;;;;4.00;3.60;;;25.40;56.80;;;;;;5086669;28;20710;-72
2021/07/27 06:46:12;;;;;;;4.10;3.70;;;25.40;56.80;;;;;;5105534;28;20196;-72
2021/07/27 06:48:46;;;;;;;4.60;3.70;;;25.40;56.80;;;;;;5099420;28;20212;-71
2021/07/27 06:51:27;;;;;;;4.30;3.90;;;25.40;56.80;;;;;;5106089;28;20337;-71
2021/07/27 06:53:59;;;;;;;4.50;4.10;;;25.40;56.80;;;;;;5102429;28;20200;-72
2021/07/27 06:56:28;;;;;;;4.13;3.83;;;25.40;56.80;;;;;;5098875;28;20546;-71
2021/07/27 06:58:57;;;;;;;6.53;4.27;;;25.40;56.80;;;;;;5105881;28;20633;-71
2021/07/27 07:01:27;;;;;;;4.73;4.10;;;25.40;56.80;;;;;;5102814;28;20200;-71
2021/07/27 07:04:01;;;;;;;4.37;3.97;;;25.40;56.80;;;;;;5094437;28;20221;-71
2021/07/27 07:06:33;;;;;;;5.23;4.30;;;25.40;56.80;;;;;;5098809;28;20208;-72
2021/07/27 07:09:04;;;;;;;4.20;3.80;;;25.40;56.80;;;;;;5089565;28;20304;-72
2021/07/27 07:11:33;;;;;;;4.27;3.80;;;25.40;56.80;;;;;;5106291;28;20193;-71
2021/07/27 07:14:04;;;;;;;4.20;3.80;;;25.30;56.70;;;;;;5106790;28;20196;-71
2021/07/27 07:16:35;;;;;;;4.47;4.07;;;25.40;56.80;;;;;;5090851;28;20231;-71
2021/07/27 07:19:06;;;;;;;4.47;4.07;;;25.40;56.80;;;;;;5100532;28;20215;-71
2021/07/27 07:21:34;;;;;;;4.20;3.90;;;25.40;56.80;;;;;;5103711;28;20208;-72
2021/07/27 07:24:05;;;;;;;4.43;4.03;;;25.40;56.80;;;;;;5102847;28;20226;-72
2021/07/27 07:26:39;;;;;;;3.93;3.63;;;25.40;56.80;;;;;;5106137;28;20223;-72
2021/07/27 07:29:10;;;;;;;3.87;3.43;;;25.40;56.80;;;;;;5100918;28;20670;-72
2021/07/27 07:31:41;;;;;;;4.10;3.80;;;25.40;56.80;;;;;;5095488;28;20185;-72
2021/07/27 07:34:09;;;;;;;4.47;4.00;;;25.40;56.80;;;;;;5098312;28;20235;-73
2021/07/27 07:36:43;;;;;;;4.20;3.90;;;25.40;56.80;;;;;;5099891;28;20217;-72
2021/07/27 07:39:11;;;;;;;4.10;3.80;;;25.40;56.80;;;;;;5084374;28;20227;-71
2021/07/27 07:41:40;;;;;;;4.00;3.60;;;25.40;56.80;;;;;;5095770;28;20207;-72
2021/07/27 07:44:26;;;;;;;4.73;4.33;;;25.40;56.90;;;;;;5102865;28;20274;-72
2021/07/27 07:46:56;;;;;;;4.73;4.33;;;25.40;56.80;;;;;;5105466;28;20847;-72
2021/07/27 07:49:26;;;;;;;4.50;4.10;;;25.40;56.80;;;;;;5101252;28;20224;-72
2021/07/27 07:52:02;;;;;;;5.30;4.80;;;25.40;56.80;;;;;;5103260;28;20215;-72
2021/07/27 07:54:35;;;;;;;4.90;4.50;;;25.40;56.80;;;;;;5103857;28;20196;-73
2021/07/27 07:57:03;;;;;;;4.17;3.83;;;25.40;56.90;;;;;;5104408;28;20214;-72
2021/07/27 07:59:34;;;;;;;4.27;3.83;;;25.40;56.90;;;;;;5103465;28;20578;-72
2021/07/27 08:02:03;;;;;;;4.87;4.40;;;25.40;56.90;;;;;;5100562;28;20204;-72
2021/07/27 08:04:33;;;;;;;4.73;4.23;;;25.40;57.50;;;;;;5099344;28;20212;-72
2021/07/27 08:07:06;;;;;;;4.40;4.00;;;25.40;57.00;;;;;;5097160;28;20197;-72
2021/07/27 08:09:36;;;;;;;4.83;4.40;;;25.40;57.00;;;;;;5092345;28;20210;-71
2021/07/27 08:12:06;;;;;;;5.07;4.17;;;25.40;57.60;;;;;;5097313;28;20221;-72
2021/07/27 08:14:38;;;;;;;4.77;4.37;;;25.40;57.00;;;;;;5096217;28;20280;-72
2021/07/27 08:17:12;;;;;;;4.37;3.97;;;25.40;57.60;;;;;;5096109;28;20209;-72
2021/07/27 08:19:44;;;;;;;4.33;4.03;;;25.40;57.00;;;;;;5105278;28;20212;-72
2021/07/27 08:22:16;;;;;;;4.47;4.10;;;25.40;57.00;;;;;;5093436;28;20201;-72
2021/07/27 08:24:47;;;;;;;4.63;4.23;;;25.40;57.00;;;;;;5098163;28;20646;-72
2021/07/27 08:27:16;;;;;;;4.87;4.47;;;25.40;56.90;;;;;;5106915;28;20202;-72
2021/07/27 08:29:46;;;;;;;4.80;4.33;;;25.40;57.00;;;;;;5102133;28;20250;-72
2021/07/27 08:32:19;;;;;;;5.00;4.60;;;25.40;57.00;;;;;;5104748;28;20220;-72
2021/07/27 08:34:50;;;;;;;5.00;4.60;;;25.40;57.00;;;;;;5104427;28;20215;-72
2021/07/27 08:37:19;;;;;;;4.57;4.17;;;25.50;57.10;;;;;;5110149;28;20192;-72
2021/07/27 08:39:50;;;;;;;4.90;4.50;;;25.40;57.00;;;;;;5108181;27;20250;-72
2021/07/27 08:42:23;;;;;;;4.73;4.33;;;25.40;56.90;;;;;;5100559;28;20424;-72
2021/07/27 08:44:57;;;;;;;5.40;4.90;;;25.50;57.10;;;;;;5104722;28;20220;-72
2021/07/27 08:47:24;;;;;;;5.20;4.70;;;25.50;57.10;;;;;;5109192;28;20263;-72
2021/07/27 08:50:05;;;;;;;5.20;4.80;;;25.50;57.10;;;;;;5102829;28;20227;-72
2021/07/27 08:52:34;;;;;;;5.47;4.70;;;25.50;57.10;;;;;;5107569;28;20227;-71
2021/07/27 08:55:11;;;;;;;5.00;4.50;;;25.50;57.00;;;;;;5103611;28;20591;-71
2021/07/27 08:57:55;;;;;;;5.53;5.07;;;25.50;57.10;;;;;;5107249;28;20210;-72
2021/07/27 09:00:41;;;;;;;5.50;4.97;;;25.50;57.10;;;;;;5100243;28;20224;-72
2021/07/27 09:03:18;;;;;;;5.10;4.63;;;25.50;57.10;;;;;;5100233;28;20725;-72
2021/07/27 09:06:21;;;;;;;5.50;5.00;;;25.50;57.10;;;;;;5097167;28;20192;-72
2021/07/27 09:08:48;;;;;;;4.67;4.33;;;25.50;57.10;;;;;;5086231;28;20220;-72
2021/07/27 09:11:18;;;;;;;5.10;4.60;;;25.50;57.20;;;;;;5106925;27;20211;-72
2021/07/27 09:13:57;;;;;;;4.87;4.37;;;25.50;57.20;;;;;;5090680;28;20273;-72
2021/07/27 09:16:28;;;;;;;5.27;4.77;;;25.50;57.10;;;;;;5108859;28;20947;-72
2021/07/27 09:19:02;;;;;;;5.00;4.60;;;25.50;57.20;;;;;;5098730;28;20525;-72
2021/07/27 09:21:32;;;;;;;5.37;4.87;;;25.60;57.30;;;;;;5105696;28;20640;-72
2021/07/27 09:24:01;;;;;;;5.07;4.63;;;25.50;57.10;;;;;;5099102;28;20274;-71
2021/07/27 09:27:12;;;;;;;5.33;4.80;;;25.50;57.20;;;;;;5100471;28;20197;-72
2021/07/27 09:29:50;;;;;;;5.03;4.63;;;25.60;57.20;;;;;;5109711;28;20692;-72
2021/07/27 09:32:20;;;;;;;5.07;4.67;;;25.60;57.30;;;;;;5102961;28;20305;-72
2021/07/27 09:34:50;;;;;;;5.13;4.73;;;25.60;57.20;;;;;;5090507;28;20228;-72
2021/07/27 09:37:26;;;;;;;5.37;4.70;;;25.60;57.20;;;;;;5101780;28;20192;-72
2021/07/27 09:40:08;;;;;;;5.50;4.50;;;25.60;57.20;;;;;;5107697;28;20204;-71
2021/07/27 09:42:53;;;;;;;5.13;4.63;;;25.70;57.30;;;;;;5091698;28;20239;-71
2021/07/27 09:45:26;;;;;;;5.03;4.53;;;25.70;57.30;;;;;;5102466;28;20201;-71
2021/07/27 09:47:58;;;;;;;5.07;4.67;;;25.70;57.30;;;;;;5109024;28;20200;-72
2021/07/27 09:50:35;;;;;;;5.17;4.77;;;25.70;57.30;;;;;;5100986;28;20193;-72
2021/07/27 09:53:10;;;;;;;5.33;4.90;;;25.70;57.30;;;;;;5109794;28;20238;-72
2021/07/27 09:55:42;;;;;;;5.57;5.10;;;25.70;57.30;;;;;;5103069;28;20188;-72
2021/07/27 09:58:33;;;;;;;5.93;4.83;;;25.70;57.30;;;;;;5096213;28;20203;-71
2021/07/27 10:01:24;;;;;;;5.37;4.97;;;25.70;57.20;;;;;;5102258;28;20637;-71
2021/07/27 10:04:03;;;;;;;5.37;4.97;;;25.70;57.30;;;;;;5099704;28;20225;-71
2021/07/27 10:06:47;;;;;;;5.63;5.20;;;25.70;57.30;;;;;;5109014;28;20321;-71
2021/07/27 10:09:25;;;;;;;5.90;5.30;;;25.80;57.30;;;;;;5098164;28;20217;-71
2021/07/27 10:12:13;;;;;;;5.97;5.47;;;25.70;57.30;;;;;;5106875;28;20204;-71
2021/07/27 10:14:49;;;;;;;5.60;5.20;;;25.80;57.30;;;;;;5088222;28;20216;-71
2021/07/27 10:17:19;;;;;;;5.67;5.17;;;25.80;57.30;;;;;;5107046;28;20250;-71
2021/07/27 10:19:56;;;;;;;6.27;5.20;;;25.80;57.30;;;;;;5093908;28;20209;-72
2021/07/27 10:22:41;;;;;;;5.60;5.10;;;25.80;57.30;;;;;;5097152;28;20229;-72
2021/07/27 10:25:14;;;;;;;5.60;5.10;;;25.80;57.30;;;;;;5103195;28;20640;-72
2021/07/27 10:27:48;;;;;;;5.90;5.40;;;25.80;57.30;;;;;;5099491;28;20203;-72
2021/07/27 10:30:28;;;;;;;5.33;4.83;;;25.90;57.40;;;;;;5104974;28;20212;-72
2021/07/27 10:33:10;;;;;;;5.67;5.17;;;25.90;57.40;;;;;;5097408;28;20328;-72
2021/07/27 10:35:40;;;;;;;5.60;5.10;;;25.80;57.30;;;;;;5097359;28;20233;-72
2021/07/27 10:38:15;;;;;;;5.83;5.40;;;25.90;57.30;;;;;;5096582;28;20218;-72
2021/07/27 10:40:43;;;;;;;5.90;5.50;;;25.90;57.40;;;;;;5103138;28;20202;-72
2021/07/27 10:43:25;;;;;;;5.87;5.47;;;25.90;57.30;;;;;;5104494;28;20232;-72
2021/07/27 10:46:02;;;;;;;6.10;5.10;;;25.90;57.30;;;;;;5089369;28;20580;-72
2021/07/27 10:48:39;;;;;;;5.70;5.20;;;25.90;57.30;;;;;;5103057;28;20207;-71
2021/07/27 10:51:10;;;;;;;5.70;5.30;;;25.90;57.30;;;;;;5101647;28;20252;-71
2021/07/27 10:53:49;;;;;;;6.43;5.83;;;25.90;57.90;;;;;;5095597;28;20199;-71
2021/07/27 10:56:27;;;;;;;6.13;5.63;;;26.00;57.30;;;;;;5100134;28;20189;-72
2021/07/27 10:58:56;;;;;;;5.53;5.07;;;26.00;57.30;;;;;;5090509;28;20187;-71
2021/07/27 11:01:32;;;;;;;5.47;5.07;;;26.00;57.30;;;;;;5095519;28;20197;-71
2021/07/27 11:04:14;;;;;;;5.97;5.47;;;26.00;57.30;;;;;;5096691;28;20291;-71
2021/07/27 11:06:49;;;;;;;5.90;5.40;;;26.00;57.30;;;;;;5098219;28;20193;-71
2021/07/27 11:09:55;;;;;;;5.40;5.00;;;26.00;57.20;;;;;;5098001;28;20212;-71
2021/07/27 11:12:31;;;;;;;6.27;5.63;;;26.00;57.30;;;;;;5105875;28;20192;-71
2021/07/27 11:15:22;;;;;;;5.63;5.13;;;26.10;57.40;;;;;;5103233;28;20737;-71
2021/07/27 11:18:03;;;;;;;5.90;5.40;;;26.10;57.40;;;;;;5099547;28;20209;-71
2021/07/27 11:20:40;;;;;;;5.47;4.97;;;26.10;57.40;;;;;;5100075;28;20219;-71
2021/07/27 11:23:18;;;;;;;5.73;5.23;;;26.10;57.40;;;;;;5104370;28;20206;-71
2021/07/27 11:25:53;;;;;;;5.47;5.07;;;26.10;57.40;;;;;;5091452;28;20197;-71
2021/07/27 11:28:39;;;;;;;6.40;5.80;;;26.10;57.40;;;;;;5085721;28;20294;-72
2021/07/27 11:31:20;;;;;;;6.07;5.43;;;26.10;57.40;;;;;;5104724;28;20235;-71
2021/07/27 11:33:50;;;;;;;5.70;5.20;;;26.10;57.40;;;;;;5095893;28;20307;-72
2021/07/27 11:36:25;;;;;;;5.63;5.13;;;26.10;57.40;;;;;;5077579;28;20199;-71
2021/07/27 11:39:06;;;;;;;5.53;5.13;;;26.10;57.40;;;;;;5097077;28;20235;-71
2021/07/27 11:41:35;;;;;;;5.50;5.10;;;26.20;57.50;;;;;;5106011;28;20209;-71
2021/07/27 11:44:05;;;;;;;6.03;5.43;;;26.20;57.60;;;;;;5109635;28;20287;-71
2021/07/27 11:46:35;;;;;;;6.37;5.60;;;26.20;57.60;;;;;;5109668;28;20212;-71
2021/07/27 11:49:09;;;;;;;5.73;5.10;;;26.20;57.60;;;;;;5106094;28;20281;-71
2021/07/27 11:51:43;;;;;;;5.50;4.97;;;26.20;57.60;;;;;;5105741;28;20212;-71
2021/07/27 11:54:36;;;;;;;5.90;5.40;;;26.20;57.70;;;;;;5102435;28;20625;-71
2021/07/27 11:57:09;;;;;;;5.57;5.17;;;26.20;57.60;;;;;;5101330;28;20199;-71
2021/07/27 11:59:38;;;;;;;5.20;4.80;;;26.30;57.70;;;;;;5108043;28;20204;-71
2021/07/27 12:02:08;;;;;;;5.70;5.00;;;26.30;57.80;;;;;;5104893;28;20606;-71
2021/07/27 12:04:38;;;;;;;5.87;5.37;;;26.30;57.80;;;;;;5085177;28;20220;-71
2021/07/27 12:07:19;;;;;;;6.10;5.60;;;26.30;57.70;;;;;;5102605;28;20249;-72
2021/07/27 12:09:48;;;;;;;6.27;5.67;;;26.30;57.80;;;;;;5108991;28;20231;-72
2021/07/27 12:12:19;;;;;;;5.33;4.87;;;26.30;58.40;;;;;;5096150;28;20642;-71
2021/07/27 12:14:49;;;;;;;5.33;4.93;;;26.30;57.80;;;;;;5099686;28;20649;-71
2021/07/27 12:17:20;;;;;;;6.60;5.50;;;26.40;57.80;;;;;;5100437;28;20733;-72
2021/07/27 12:19:51;;;;;;;5.33;4.90;;;26.30;57.70;;;;;;5102714;28;20831;-71
2021/07/27 12:22:22;;;;;;;5.20;4.80;;;26.40;57.90;;;;;;5104300;28;20567;-71
2021/07/27 12:24:53;;;;;;;5.17;4.77;;;26.40;57.90;;;;;;5107107;28;20211;-71
2021/07/27 12:27:26;;;;;;;5.50;4.97;;;26.40;57.90;;;;;;5103798;28;20267;-71
2021/07/27 12:29:54;;;;;;;5.70;5.20;;;26.40;58.00;;;;;;5104696;28;20231;-71
2021/07/27 12:32:22;;;;;;;5.90;5.40;;;26.40;57.90;;;;;;5109179;28;20203;-72
2021/07/27 12:35:11;;;;;;;5.70;5.30;;;26.40;58.00;;;;;;5105411;28;20243;-72
2021/07/27 12:37:40;;;;;;;5.53;5.10;;;26.40;58.00;;;;;;5108742;28;20204;-71
2021/07/27 12:40:09;;;;;;;5.80;5.30;;;26.40;58.00;;;;;;5101677;28;20196;-71
2021/07/27 12:42:38;;;;;;;5.43;5.00;;;26.40;58.00;;;;;;5110229;28;20201;-72
2021/07/27 12:45:09;;;;;;;5.87;5.40;;;26.40;57.90;;;;;;5104838;28;20200;-72
2021/07/27 12:47:38;;;;;;;5.43;4.93;;;26.50;58.20;;;;;;5096520;28;20219;-72
2021/07/27 12:50:09;;;;;;;6.27;5.67;;;26.50;58.00;;;;;;5107703;28;20887;-72
2021/07/27 12:52:38;;;;;;;5.60;5.10;;;26.50;58.10;;;;;;5107418;28;20223;-71
2021/07/27 12:55:08;;;;;;;5.57;5.07;;;26.50;58.10;;;;;;5109618;28;20188;-71
2021/07/27 12:57:40;;;;;;;5.90;5.40;;;26.50;58.00;;;;;;5109335;28;20257;-71
2021/07/27 13:00:11;;;;;;;5.57;5.13;;;26.50;58.10;;;;;;5107838;28;20577;-71
2021/07/27 13:02:53;;;;;;;5.70;5.20;;;26.50;58.10;;;;;;5105051;28;20849;-71
2021/07/27 13:05:23;;;;;;;6.00;5.50;;;26.60;58.10;;;;;;5103556;28;20185;-71
2021/07/27 13:07:58;;;;;;;5.77;5.27;;;26.60;58.20;;;;;;5099293;28;20189;-71
2021/07/27 13:10:41;;;;;;;6.17;5.57;;;26.60;58.20;;;;;;5098885;28;20295;-71
2021/07/27 13:13:10;;;;;;;5.93;5.43;;;26.60;58.30;;;;;;5087542;28;20196;-71
2021/07/27 13:15:40;;;;;;;5.60;5.10;;;26.60;58.20;;;;;;5108069;28;20192;-71
2021/07/27 13:18:12;;;;;;;6.00;5.50;;;26.60;58.20;;;;;;5110456;27;20227;-71
2021/07/27 13:20:41;;;;;;;6.03;5.53;;;26.60;58.40;;;;;;5091144;28;20304;-71
2021/07/27 13:23:09;;;;;;;5.87;5.37;;;26.60;58.30;;;;;;5100908;28;20196;-71
2021/07/27 13:25:41;;;;;;;5.40;5.00;;;26.60;58.20;;;;;;5099675;28;20540;-71
2021/07/27 13:28:13;;;;;;;6.00;5.50;;;26.60;58.20;;;;;;5104417;28;20211;-71
2021/07/27 13:30:47;;;;;;;5.90;5.50;;;26.60;58.10;;;;;;5104315;28;20326;-71
2021/07/27 13:33:18;;;;;;;6.07;5.40;;;26.70;58.30;;;;;;5102048;28;20196;-71
2021/07/27 13:35:48;;;;;;;6.03;5.53;;;26.60;58.30;;;;;;5103551;28;20221;-72
2021/07/27 13:38:19;;;;;;;6.37;5.77;;;26.60;58.20;;;;;;5092064;28;20220;-71
2021/07/27 13:40:50;;;;;;;6.13;5.63;;;26.60;58.20;;;;;;5100508;28;20205;-70
2021/07/27 13:43:16;;;;;;;6.20;5.67;;;26.70;58.30;;;;;;5106819;28;20226;-70
2021/07/27 13:45:46;;;;;;;5.43;5.03;;;26.70;58.30;;;;;;5088862;28;20208;-70
2021/07/27 13:48:15;;;;;;;6.20;5.50;;;26.70;58.30;;;;;;5079433;28;20269;-70